createdAt,value
2017-05-30T00:00:37.519Z,18.05
2017-05-30T00:01:37.194Z,17.98
2017-05-30T00:02:37.519Z,18.03
2017-05-30T00:03:37.841Z,18.06
2017-05-30T00:04:37.523Z,17.96
2017-05-30T00:05:37.509Z,18.01
2017-05-30T00:06:37.531Z,17.96
2017-05-30T00:07:37.543Z,17.98
2017-05-30T00:08:37.195Z,17.96
2017-05-30T00:09:37.508Z,17.86
2017-05-30T00:10:37.839Z,17.87
2017-05-30T00:11:37.866Z,17.84
2017-05-30T00:12:37.830Z,17.88
2017-05-30T00:13:37.503Z,17.88
2017-05-30T00:14:37.843Z,17.83
2017-05-30T00:15:37.838Z,17.81
2017-05-30T00:16:37.815Z,17.86
2017-05-30T00:17:37.815Z,17.77
2017-05-30T00:18:37.178Z,17.8
2017-05-30T00:19:37.507Z,17.8
2017-05-30T00:20:37.485Z,17.79
2017-05-30T00:21:37.495Z,17.8
2017-05-30T00:22:37.832Z,17.74
2017-05-30T00:23:37.497Z,17.74
2017-05-30T00:24:37.488Z,17.69
2017-05-30T00:25:37.483Z,17.73
2017-05-30T00:26:37.794Z,17.73
2017-05-30T00:27:37.479Z,17.65
2017-05-30T00:28:37.847Z,17.66
2017-05-30T00:29:37.818Z,17.69
2017-05-30T00:30:37.473Z,17.62
2017-05-30T00:31:37.174Z,17.69
2017-05-30T00:32:37.481Z,17.55
2017-05-30T00:33:37.786Z,17.65
2017-05-30T00:34:37.470Z,17.6
2017-05-30T00:35:37.474Z,17.52
2017-05-30T00:36:37.165Z,17.6
2017-05-30T00:37:37.459Z,17.47
2017-05-30T00:38:37.457Z,17.46
2017-05-30T00:39:37.792Z,17.5
2017-05-30T00:40:37.797Z,17.57
2017-05-30T00:41:37.131Z,17.55
2017-05-30T00:42:37.796Z,17.54
2017-05-30T00:43:37.777Z,17.62
2017-05-30T00:44:37.447Z,17.58
2017-05-30T00:45:37.466Z,17.5
2017-05-30T00:46:37.446Z,17.5
2017-05-30T00:47:37.768Z,17.57
2017-05-30T00:48:37.785Z,17.49
2017-05-30T00:49:37.792Z,17.52
2017-05-30T00:50:37.439Z,17.49
2017-05-30T00:51:37.770Z,17.47
2017-05-30T00:52:37.776Z,17.49
2017-05-30T00:53:37.453Z,17.54
2017-05-30T00:54:37.786Z,17.5
2017-05-30T00:55:37.747Z,17.5
2017-05-30T00:56:37.430Z,17.52
2017-05-30T00:57:37.456Z,17.54
2017-05-30T00:58:37.423Z,17.57
2017-05-30T00:59:37.740Z,17.46
2017-05-30T01:00:37.422Z,17.57
2017-05-30T01:01:37.740Z,17.4
2017-05-30T01:02:37.743Z,17.54
2017-05-30T01:03:37.731Z,17.57
2017-05-30T01:04:37.415Z,17.58
2017-05-30T01:05:37.411Z,17.62
2017-05-30T01:06:37.427Z,17.5
2017-05-30T01:07:37.090Z,17.54
2017-05-30T01:08:37.728Z,17.55
2017-05-30T01:09:37.402Z,17.45
2017-05-30T01:10:37.402Z,17.54
2017-05-30T01:11:37.726Z,17.46
2017-05-30T01:12:37.401Z,17.62
2017-05-30T01:13:37.398Z,17.6
2017-05-30T01:14:37.404Z,17.54
2017-05-30T01:15:37.722Z,17.55
2017-05-30T01:16:37.406Z,17.4
2017-05-30T01:17:37.072Z,17.49
2017-05-30T01:18:37.711Z,17.47
2017-05-30T01:19:37.712Z,17.5
2017-05-30T01:20:37.383Z,17.5
2017-05-30T01:21:37.698Z,17.58
2017-05-30T01:22:37.378Z,17.52
2017-05-30T01:23:37.746Z,17.54
2017-05-30T01:24:37.716Z,17.49
2017-05-30T01:25:37.380Z,17.55
2017-05-30T01:26:37.724Z,17.55
2017-05-30T01:27:37.694Z,17.55
2017-05-30T01:28:37.700Z,17.5
2017-05-30T01:29:37.708Z,17.47
2017-05-30T01:30:37.384Z,17.49
2017-05-30T01:31:37.358Z,17.45
2017-05-30T01:32:37.364Z,17.47
2017-05-30T01:33:37.361Z,17.54
2017-05-30T01:34:37.678Z,17.42
2017-05-30T01:35:37.047Z,17.45
2017-05-30T01:36:37.045Z,17.5
2017-05-30T01:37:37.674Z,17.46
2017-05-30T01:38:37.349Z,17.47
2017-05-30T01:39:37.670Z,17.42
2017-05-30T01:40:37.352Z,17.45
2017-05-30T01:41:37.358Z,17.39
2017-05-30T01:42:37.341Z,17.45
2017-05-30T01:43:37.336Z,17.43
2017-05-30T01:44:37.333Z,17.46
2017-05-30T01:45:37.361Z,17.43
2017-05-30T01:46:37.333Z,17.45
2017-05-30T01:47:37.652Z,17.42
2017-05-30T01:48:37.330Z,17.47
2017-05-30T01:49:37.648Z,17.52
2017-05-30T01:50:37.348Z,17.49
2017-05-30T01:51:37.345Z,17.43
2017-05-30T01:52:37.645Z,17.45
2017-05-30T01:53:37.642Z,17.49
2017-05-30T01:54:37.339Z,17.49
2017-05-30T01:55:37.646Z,17.5
2017-05-30T01:56:37.315Z,17.49
2017-05-30T01:57:37.314Z,17.57
2017-05-30T01:58:37.655Z,17.6
2017-05-30T01:59:37.623Z,17.5
2017-05-30T02:00:37.629Z,17.49
2017-05-30T02:01:37.624Z,17.49
2017-05-30T02:02:37.621Z,17.47
2017-05-30T02:03:37.306Z,17.45
2017-05-30T02:04:37.297Z,17.54
2017-05-30T02:05:37.295Z,17.52
2017-05-30T02:06:37.617Z,17.57
2017-05-30T02:07:37.618Z,17.58
2017-05-30T02:08:37.292Z,17.54
2017-05-30T02:09:37.613Z,17.6
2017-05-30T02:10:37.308Z,17.68
2017-05-30T02:11:37.606Z,17.68
2017-05-30T02:12:37.604Z,17.68
2017-05-30T02:13:37.605Z,17.63
2017-05-30T02:14:37.281Z,17.68
2017-05-30T02:15:37.289Z,17.73
2017-05-30T02:16:37.620Z,17.81
2017-05-30T02:17:37.271Z,17.8
2017-05-30T02:18:37.271Z,17.84
2017-05-30T02:19:37.292Z,17.86
2017-05-30T02:20:37.607Z,17.87
2017-05-30T02:21:37.585Z,17.87
2017-05-30T02:22:37.266Z,17.92
2017-05-30T02:23:37.584Z,18.01
2017-05-30T02:24:37.593Z,17.94
2017-05-30T02:25:37.285Z,17.98
2017-05-30T02:26:37.644Z,18.05
2017-05-30T02:27:37.693Z,18.06
2017-05-30T02:28:36.982Z,18.08
2017-05-30T02:29:37.581Z,18.02
2017-05-30T02:30:37.252Z,18.03
2017-05-30T02:31:37.252Z,18.06
2017-05-30T02:32:37.268Z,18.14
2017-05-30T02:33:36.924Z,18.1
2017-05-30T02:34:37.577Z,18.05
2017-05-30T02:35:37.562Z,18.06
2017-05-30T02:36:37.258Z,18.1
2017-05-30T02:37:37.241Z,18.17
2017-05-30T02:38:37.238Z,18.13
2017-05-30T02:39:36.917Z,18.17
2017-05-30T02:40:37.238Z,18.16
2017-05-30T02:41:37.552Z,18.17
2017-05-30T02:42:36.922Z,18.2
2017-05-30T02:43:37.244Z,18.16
2017-05-30T02:44:37.551Z,18.16
2017-05-30T02:45:38.449Z,18.23
2017-05-30T02:46:37.567Z,18.19
2017-05-30T02:47:37.540Z,18.26
2017-05-30T02:48:37.543Z,18.29
2017-05-30T02:49:37.216Z,18.21
2017-05-30T02:50:37.548Z,18.23
2017-05-30T02:51:37.552Z,18.23
2017-05-30T02:52:37.552Z,18.29
2017-05-30T02:53:36.891Z,18.23
2017-05-30T02:54:37.564Z,18.27
2017-05-30T02:55:37.225Z,18.27
2017-05-30T02:56:37.558Z,18.23
2017-05-30T02:57:37.544Z,18.32
2017-05-30T02:58:37.550Z,18.32
2017-05-30T02:59:37.202Z,18.24
2017-05-30T03:00:37.555Z,18.26
2017-05-30T03:01:37.526Z,18.26
2017-05-30T03:02:37.201Z,18.34
2017-05-30T03:03:37.517Z,18.31
2017-05-30T03:04:37.196Z,18.32
2017-05-30T03:05:37.521Z,18.38
2017-05-30T03:06:37.192Z,18.44
2017-05-30T03:07:36.889Z,18.42
2017-05-30T03:08:37.528Z,18.45
2017-05-30T03:09:37.194Z,18.45
2017-05-30T03:10:37.506Z,18.5
2017-05-30T03:11:37.208Z,18.5
2017-05-30T03:12:37.522Z,18.49
2017-05-30T03:13:37.502Z,18.65
2017-05-30T03:14:37.524Z,18.71
2017-05-30T03:15:37.505Z,18.6
2017-05-30T03:16:37.175Z,18.68
2017-05-30T03:17:37.508Z,18.76
2017-05-30T03:18:37.499Z,18.71
2017-05-30T03:19:37.178Z,18.79
2017-05-30T03:20:37.334Z,18.76
2017-05-30T03:21:37.493Z,18.89
2017-05-30T03:22:37.517Z,18.89
2017-05-30T03:23:37.492Z,18.89
2017-05-30T03:24:37.192Z,18.94
2017-05-30T03:25:37.486Z,19.02
2017-05-30T03:26:37.165Z,18.94
2017-05-30T03:27:36.886Z,19.05
2017-05-30T03:28:37.487Z,19.09
2017-05-30T03:29:37.481Z,19.13
2017-05-30T03:30:37.546Z,19.13
2017-05-30T03:31:37.163Z,19.16
2017-05-30T03:32:37.480Z,19.23
2017-05-30T03:33:37.496Z,19.24
2017-05-30T03:34:37.475Z,19.25
2017-05-30T03:35:37.160Z,19.31
2017-05-30T03:36:37.492Z,19.28
2017-05-30T03:37:37.470Z,19.3
2017-05-30T03:38:37.471Z,19.31
2017-05-30T03:39:37.477Z,19.35
2017-05-30T03:40:37.467Z,19.34
2017-05-30T03:41:36.823Z,19.35
2017-05-30T03:42:37.169Z,19.32
2017-05-30T03:43:37.465Z,19.34
2017-05-30T03:44:37.468Z,19.3
2017-05-30T03:45:37.463Z,19.35
2017-05-30T03:46:37.140Z,19.38
2017-05-30T03:47:37.161Z,19.45
2017-05-30T03:48:37.157Z,19.46
2017-05-30T03:49:37.462Z,19.45
2017-05-30T03:50:37.159Z,19.49
2017-05-30T03:51:37.462Z,19.47
2017-05-30T03:52:37.150Z,19.47
2017-05-30T03:53:37.459Z,19.56
2017-05-30T03:54:37.139Z,19.5
2017-05-30T03:55:37.456Z,19.56
2017-05-30T03:56:37.134Z,19.5
2017-05-30T03:57:37.486Z,19.56
2017-05-30T03:58:37.474Z,19.63
2017-05-30T03:59:37.138Z,19.61
2017-05-30T04:00:37.133Z,19.61
2017-05-30T04:01:37.129Z,19.52
2017-05-30T04:02:37.453Z,19.64
2017-05-30T04:03:37.152Z,19.67
2017-05-30T04:04:37.454Z,19.63
2017-05-30T04:05:37.129Z,19.67
2017-05-30T04:06:37.452Z,19.7
2017-05-30T04:07:37.128Z,19.64
2017-05-30T04:08:37.449Z,19.67
2017-05-30T04:09:37.443Z,19.79
2017-05-30T04:10:37.125Z,19.7
2017-05-30T04:11:37.445Z,19.78
2017-05-30T04:12:37.469Z,19.79
2017-05-30T04:13:37.449Z,19.89
2017-05-30T04:14:37.466Z,19.86
2017-05-30T04:15:37.122Z,19.87
2017-05-30T04:16:37.444Z,19.9
2017-05-30T04:17:37.497Z,19.95
2017-05-30T04:18:37.118Z,20.01
2017-05-30T04:19:37.119Z,20.01
2017-05-30T04:20:37.124Z,20.01
2017-05-30T04:21:37.125Z,19.98
2017-05-30T04:22:37.119Z,20.02
2017-05-30T04:23:37.441Z,20.01
2017-05-30T04:24:37.448Z,20.01
2017-05-30T04:25:37.118Z,20.05
2017-05-30T04:26:37.142Z,20.05
2017-05-30T04:27:37.132Z,20.16
2017-05-30T04:28:37.122Z,20.11
2017-05-30T04:29:37.438Z,20.18
2017-05-30T04:30:37.439Z,20.16
2017-05-30T04:31:37.440Z,20.26
2017-05-30T04:32:37.155Z,20.3
2017-05-30T04:33:37.435Z,20.25
2017-05-30T04:34:37.433Z,20.23
2017-05-30T04:35:37.112Z,20.35
2017-05-30T04:36:37.152Z,20.34
2017-05-30T04:37:37.437Z,20.37
2017-05-30T04:38:37.133Z,20.4
2017-05-30T04:39:37.458Z,20.42
2017-05-30T04:40:37.145Z,20.46
2017-05-30T04:41:37.152Z,20.41
2017-05-30T04:42:37.451Z,20.4
2017-05-30T04:43:37.131Z,20.42
2017-05-30T04:44:37.114Z,20.41
2017-05-30T04:45:37.431Z,20.41
2017-05-30T04:46:37.439Z,20.56
2017-05-30T04:47:37.457Z,20.58
2017-05-30T04:48:37.110Z,20.63
2017-05-30T04:49:37.114Z,20.67
2017-05-30T04:50:36.796Z,20.64
2017-05-30T04:51:37.114Z,20.63
2017-05-30T04:52:37.435Z,20.75
2017-05-30T04:53:37.110Z,20.75
2017-05-30T04:54:37.436Z,20.78
2017-05-30T04:55:36.790Z,20.78
2017-05-30T04:56:37.442Z,20.79
2017-05-30T04:57:37.436Z,20.82
2017-05-30T04:58:37.118Z,20.85
2017-05-30T04:59:37.436Z,20.86
2017-05-30T05:00:37.114Z,20.85
2017-05-30T05:01:37.113Z,20.82
2017-05-30T05:02:37.498Z,20.9
2017-05-30T05:03:37.142Z,20.9
2017-05-30T05:04:37.458Z,20.88
2017-05-30T05:05:37.438Z,21.01
2017-05-30T05:06:37.119Z,21.11
2017-05-30T05:07:37.443Z,21.11
2017-05-30T05:08:36.811Z,21.08
2017-05-30T05:09:37.139Z,21.21
2017-05-30T05:10:37.122Z,21.22
2017-05-30T05:11:37.435Z,21.27
2017-05-30T05:12:37.437Z,21.34
2017-05-30T05:13:37.434Z,21.27
2017-05-30T05:14:37.124Z,21.27
2017-05-30T05:15:37.521Z,21.36
2017-05-30T05:16:37.457Z,21.48
2017-05-30T05:17:37.135Z,21.36
2017-05-30T05:18:37.120Z,21.48
2017-05-30T05:19:37.445Z,21.53
2017-05-30T05:20:37.458Z,21.61
2017-05-30T05:21:37.455Z,21.7
2017-05-30T05:22:37.125Z,21.78
2017-05-30T05:23:37.466Z,21.93
2017-05-30T05:24:37.471Z,22.05
2017-05-30T05:25:36.820Z,22.27
2017-05-30T05:26:36.806Z,22.39
2017-05-30T05:27:37.453Z,22.55
2017-05-30T05:28:37.459Z,22.73
2017-05-30T05:29:37.136Z,22.96
2017-05-30T05:30:37.142Z,23.15
2017-05-30T05:31:37.134Z,23.34
2017-05-30T05:32:37.458Z,23.5
2017-05-30T05:33:37.463Z,23.66
2017-05-30T05:34:37.455Z,23.84
2017-05-30T05:35:36.815Z,24.02
2017-05-30T05:36:37.136Z,24.11
2017-05-30T05:37:37.457Z,24.21
2017-05-30T05:38:37.477Z,24.21
2017-05-30T05:39:37.465Z,24.14
2017-05-30T05:40:37.469Z,24.09
2017-05-30T05:41:37.472Z,23.99
2017-05-30T05:42:37.488Z,23.85
2017-05-30T05:43:37.174Z,23.78
2017-05-30T05:44:37.155Z,23.75
2017-05-30T05:45:36.836Z,23.6
2017-05-30T05:46:37.163Z,23.53
2017-05-30T05:47:37.165Z,23.5
2017-05-30T05:48:37.161Z,23.52
2017-05-30T05:49:37.500Z,23.45
2017-05-30T05:50:37.483Z,23.4
2017-05-30T05:51:37.171Z,23.29
2017-05-30T05:52:37.504Z,23.24
2017-05-30T05:53:37.171Z,23.26
2017-05-30T05:54:37.507Z,23.14
2017-05-30T05:55:37.179Z,23.09
2017-05-30T05:56:36.886Z,23.03
2017-05-30T05:57:36.895Z,22.99
2017-05-30T05:58:37.509Z,23.03
2017-05-30T05:59:37.229Z,22.96
2017-05-30T06:00:37.528Z,22.94
2017-05-30T06:01:36.871Z,22.86
2017-05-30T06:02:37.194Z,22.92
2017-05-30T06:03:37.190Z,22.88
2017-05-30T06:04:37.192Z,22.91
2017-05-30T06:05:37.539Z,22.88
2017-05-30T06:06:37.517Z,22.97
2017-05-30T06:07:37.200Z,23.01
2017-05-30T06:08:36.889Z,23.06
2017-05-30T06:09:37.203Z,23
2017-05-30T06:10:37.206Z,22.97
2017-05-30T06:11:37.535Z,23
2017-05-30T06:12:37.532Z,23.01
2017-05-30T06:13:37.563Z,22.88
2017-05-30T06:14:37.546Z,22.67
2017-05-30T06:15:37.217Z,22.34
2017-05-30T06:16:37.560Z,22.18
2017-05-30T06:17:36.898Z,21.9
2017-05-30T06:18:36.921Z,21.56
2017-05-30T06:19:37.553Z,21.25
2017-05-30T06:20:37.258Z,21.08
2017-05-30T06:21:37.254Z,20.86
2017-05-30T06:22:37.228Z,20.74
2017-05-30T06:23:37.232Z,20.6
2017-05-30T06:24:37.279Z,20.48
2017-05-30T06:25:37.556Z,20.32
2017-05-30T06:26:37.282Z,20.26
2017-05-30T06:27:37.553Z,20.15
2017-05-30T06:28:37.580Z,20.05
2017-05-30T06:29:36.919Z,20
2017-05-30T06:30:37.275Z,19.98
2017-05-30T06:31:37.234Z,19.92
2017-05-30T06:32:36.916Z,19.86
2017-05-30T06:33:37.572Z,19.9
2017-05-30T06:34:37.589Z,19.85
2017-05-30T06:35:37.259Z,19.87
2017-05-30T06:36:37.239Z,19.9
2017-05-30T06:37:37.573Z,19.85
2017-05-30T06:38:37.560Z,19.93
2017-05-30T06:39:37.246Z,19.97
2017-05-30T06:40:37.243Z,19.98
2017-05-30T06:41:37.575Z,19.97
2017-05-30T06:42:37.240Z,20.04
2017-05-30T06:43:36.936Z,20.16
2017-05-30T06:44:37.559Z,20.11
2017-05-30T06:45:37.254Z,20.27
2017-05-30T06:46:37.562Z,20.34
2017-05-30T06:47:37.576Z,20.35
2017-05-30T06:48:37.264Z,20.41
2017-05-30T06:49:37.577Z,20.48
2017-05-30T06:50:37.560Z,20.64
2017-05-30T06:51:37.251Z,20.83
2017-05-30T06:52:36.922Z,20.98
2017-05-30T06:53:37.583Z,21.25
2017-05-30T06:54:37.245Z,21.48
2017-05-30T06:55:37.584Z,22.09
2017-05-30T06:56:37.793Z,22.51
2017-05-30T06:57:36.921Z,23.12
2017-05-30T06:58:37.246Z,23.48
2017-05-30T06:59:37.568Z,23.59
2017-05-30T07:00:37.253Z,23.67
2017-05-30T07:01:37.576Z,23.62
2017-05-30T07:02:37.573Z,23.85
2017-05-30T07:03:37.575Z,24.42
2017-05-30T07:04:37.255Z,25.01
2017-05-30T07:05:37.576Z,25.51
2017-05-30T07:06:37.289Z,25.79
2017-05-30T07:07:37.581Z,25.84
2017-05-30T07:08:37.593Z,25.75
2017-05-30T07:09:37.598Z,25.56
2017-05-30T07:10:37.288Z,25.15
2017-05-30T07:11:37.584Z,24.9
2017-05-30T07:12:37.273Z,24.49
2017-05-30T07:13:37.596Z,24.18
2017-05-30T07:14:37.601Z,23.92
2017-05-30T07:15:37.618Z,23.66
2017-05-30T07:16:37.279Z,23.4
2017-05-30T07:17:37.282Z,23.21
2017-05-30T07:18:36.964Z,23.03
2017-05-30T07:19:37.603Z,22.71
2017-05-30T07:20:37.289Z,22.69
2017-05-30T07:21:36.970Z,22.49
2017-05-30T07:22:37.297Z,22.24
2017-05-30T07:23:37.295Z,22.11
2017-05-30T07:24:37.623Z,21.93
2017-05-30T07:25:37.643Z,21.89
2017-05-30T07:26:36.998Z,21.73
2017-05-30T07:27:37.328Z,21.76
2017-05-30T07:28:37.309Z,21.59
2017-05-30T07:29:37.625Z,21.43
2017-05-30T07:30:37.628Z,21.49
2017-05-30T07:31:37.313Z,21.36
2017-05-30T07:32:37.634Z,21.34
2017-05-30T07:33:37.308Z,21.38
2017-05-30T07:34:37.651Z,21.23
2017-05-30T07:35:37.330Z,21.23
2017-05-30T07:36:37.657Z,21.23
2017-05-30T07:37:37.315Z,21.25
2017-05-30T07:38:37.652Z,21.21
2017-05-30T07:39:37.317Z,21.3
2017-05-30T07:40:36.999Z,21.23
2017-05-30T07:41:37.653Z,21.28
2017-05-30T07:42:37.642Z,21.23
2017-05-30T07:43:37.004Z,21.21
2017-05-30T07:44:37.329Z,21.25
2017-05-30T07:45:37.643Z,21.28
2017-05-30T07:46:37.325Z,21.25
2017-05-30T07:47:37.324Z,21.34
2017-05-30T07:48:37.005Z,21.31
2017-05-30T07:49:37.330Z,21.41
2017-05-30T07:50:37.651Z,21.49
2017-05-30T07:51:37.359Z,21.46
2017-05-30T07:52:37.651Z,21.48
2017-05-30T07:53:37.335Z,21.48
2017-05-30T07:54:37.665Z,21.49
2017-05-30T07:55:37.334Z,21.58
2017-05-30T07:56:37.656Z,21.56
2017-05-30T07:57:37.656Z,21.64
2017-05-30T07:58:37.349Z,21.59
2017-05-30T07:59:37.677Z,21.61
2017-05-30T08:00:37.341Z,21.62
2017-05-30T08:01:37.906Z,21.59
2017-05-30T08:02:37.340Z,21.51
2017-05-30T08:03:37.343Z,21.48
2017-05-30T08:04:37.354Z,21.48
2017-05-30T08:05:37.671Z,21.48
2017-05-30T08:06:37.668Z,21.45
2017-05-30T08:07:37.718Z,21.41
2017-05-30T08:08:37.681Z,21.4
2017-05-30T08:09:37.357Z,21.43
2017-05-30T08:10:37.350Z,21.46
2017-05-30T08:11:37.701Z,21.31
2017-05-30T08:12:37.714Z,21.48
2017-05-30T08:13:37.687Z,21.43
2017-05-30T08:14:37.070Z,21.48
2017-05-30T08:15:37.354Z,21.51
2017-05-30T08:16:37.050Z,21.55
2017-05-30T08:17:37.358Z,21.56
2017-05-30T08:18:37.381Z,21.58
2017-05-30T08:19:37.684Z,21.74
2017-05-30T08:20:37.683Z,21.71
2017-05-30T08:21:37.387Z,21.77
2017-05-30T08:22:37.367Z,21.93
2017-05-30T08:23:37.702Z,21.89
2017-05-30T08:24:37.691Z,21.94
2017-05-30T08:25:37.364Z,21.94
2017-05-30T08:26:37.698Z,21.97
2017-05-30T08:27:37.370Z,22.07
2017-05-30T08:28:37.371Z,22.18
2017-05-30T08:29:37.401Z,22.38
2017-05-30T08:30:37.073Z,22.44
2017-05-30T08:31:37.373Z,22.6
2017-05-30T08:32:37.374Z,22.66
2017-05-30T08:33:37.697Z,22.75
2017-05-30T08:34:37.053Z,22.82
2017-05-30T08:35:37.698Z,22.97
2017-05-30T08:36:37.723Z,22.96
2017-05-30T08:37:37.707Z,22.97
2017-05-30T08:38:37.705Z,23.19
2017-05-30T08:39:37.390Z,23.29
2017-05-30T08:40:37.081Z,23.44
2017-05-30T08:41:37.394Z,23.59
2017-05-30T08:42:37.394Z,23.62
2017-05-30T08:43:37.717Z,23.75
2017-05-30T08:44:37.087Z,23.9
2017-05-30T08:45:37.081Z,24
2017-05-30T08:46:37.397Z,24.18
2017-05-30T08:47:37.086Z,24.22
2017-05-30T08:48:37.732Z,24.36
2017-05-30T08:49:37.086Z,24.4
2017-05-30T08:50:37.744Z,24.63
2017-05-30T08:51:37.449Z,24.74
2017-05-30T08:52:37.740Z,24.96
2017-05-30T08:53:37.102Z,24.94
2017-05-30T08:54:37.429Z,25.2
2017-05-30T08:55:37.101Z,25.2
2017-05-30T08:56:37.432Z,25.45
2017-05-30T08:57:37.762Z,25.54
2017-05-30T08:58:37.772Z,25.69
2017-05-30T08:59:37.438Z,25.82
2017-05-30T09:00:37.495Z,25.91
2017-05-30T09:01:37.760Z,26.17
2017-05-30T09:02:37.474Z,26.31
2017-05-30T09:03:37.793Z,26.44
2017-05-30T09:04:37.808Z,26.49
2017-05-30T09:05:37.799Z,26.45
2017-05-30T09:06:37.797Z,26.49
2017-05-30T09:07:37.523Z,26.61
2017-05-30T09:08:37.806Z,26.6
2017-05-30T09:09:37.505Z,26.63
2017-05-30T09:10:37.845Z,26.52
2017-05-30T09:11:37.834Z,26.64
2017-05-30T09:12:37.506Z,26.61
2017-05-30T09:13:37.488Z,26.56
2017-05-30T09:14:37.811Z,26.37
2017-05-30T09:15:37.190Z,26.22
2017-05-30T09:16:37.861Z,25.78
2017-05-30T09:17:37.507Z,25.41
2017-05-30T09:18:37.201Z,25.23
2017-05-30T09:19:37.840Z,24.85
2017-05-30T09:20:37.847Z,24.51
2017-05-30T09:21:37.522Z,24.29
2017-05-30T09:22:37.859Z,24.07
2017-05-30T09:23:37.866Z,23.81
2017-05-30T09:24:37.863Z,23.67
2017-05-30T09:25:37.857Z,23.62
2017-05-30T09:26:37.549Z,23.59
2017-05-30T09:27:37.558Z,23.53
2017-05-30T09:28:37.869Z,23.5
2017-05-30T09:29:37.558Z,23.55
2017-05-30T09:30:37.907Z,23.62
2017-05-30T09:31:37.237Z,23.7
2017-05-30T09:32:37.885Z,23.9
2017-05-30T09:33:37.242Z,24.03
2017-05-30T09:34:37.887Z,24.14
2017-05-30T09:35:37.895Z,24.22
2017-05-30T09:36:37.574Z,24.29
2017-05-30T09:37:37.903Z,24.29
2017-05-30T09:38:37.900Z,24.36
2017-05-30T09:39:37.582Z,24.51
2017-05-30T09:40:37.585Z,24.86
2017-05-30T09:41:37.597Z,25.09
2017-05-30T09:42:37.919Z,25.45
2017-05-30T09:43:37.598Z,25.56
2017-05-30T09:44:37.599Z,25.69
2017-05-30T09:45:37.935Z,25.91
2017-05-30T09:46:37.290Z,26.17
2017-05-30T09:47:37.611Z,26.34
2017-05-30T09:48:37.294Z,26.41
2017-05-30T09:49:37.962Z,26.45
2017-05-30T09:50:37.620Z,26.61
2017-05-30T09:51:37.637Z,26.81
2017-05-30T09:52:37.983Z,26.78
2017-05-30T09:53:37.314Z,26.82
2017-05-30T09:54:37.658Z,26.87
2017-05-30T09:55:37.318Z,26.86
2017-05-30T09:56:37.351Z,26.93
2017-05-30T09:57:37.973Z,27.08
2017-05-30T09:58:37.343Z,27.21
2017-05-30T09:59:37.981Z,27.33
2017-05-30T10:00:37.352Z,27.43
2017-05-30T10:01:37.670Z,27.53
2017-05-30T10:02:38.033Z,27.68
2017-05-30T10:03:38.003Z,27.65
2017-05-30T10:04:37.683Z,27.75
2017-05-30T10:05:38.014Z,27.74
2017-05-30T10:06:37.694Z,27.72
2017-05-30T10:07:38.020Z,27.83
2017-05-30T10:08:38.023Z,27.8
2017-05-30T10:09:37.707Z,27.94
2017-05-30T10:10:37.719Z,28.03
2017-05-30T10:11:37.396Z,28.12
2017-05-30T10:12:37.727Z,28.14
2017-05-30T10:13:37.728Z,28.14
2017-05-30T10:14:37.734Z,28.18
2017-05-30T10:15:37.743Z,28.18
2017-05-30T10:16:37.766Z,28.18
2017-05-30T10:17:38.071Z,28.41
2017-05-30T10:18:38.081Z,28.49
2017-05-30T10:19:38.081Z,28.64
2017-05-30T10:20:38.107Z,28.91
2017-05-30T10:21:37.769Z,28.95
2017-05-30T10:22:37.776Z,29.13
2017-05-30T10:23:37.461Z,29.08
2017-05-30T10:24:38.116Z,29.08
2017-05-30T10:25:37.793Z,28.97
2017-05-30T10:26:38.121Z,28.91
2017-05-30T10:27:37.808Z,28.95
2017-05-30T10:28:37.813Z,28.98
2017-05-30T10:29:38.146Z,28.98
2017-05-30T10:30:37.509Z,28.88
2017-05-30T10:31:37.829Z,28.86
2017-05-30T10:32:38.153Z,28.76
2017-05-30T10:33:38.183Z,28.65
2017-05-30T10:34:37.526Z,28.75
2017-05-30T10:35:37.858Z,28.72
2017-05-30T10:36:37.857Z,28.8
2017-05-30T10:37:38.187Z,28.8
2017-05-30T10:38:37.555Z,28.73
2017-05-30T10:39:37.901Z,28.73
2017-05-30T10:40:37.899Z,28.61
2017-05-30T10:41:38.237Z,28.53
2017-05-30T10:42:38.522Z,28.57
2017-05-30T10:43:37.926Z,28.55
2017-05-30T10:44:37.915Z,28.48
2017-05-30T10:45:38.245Z,28.54
2017-05-30T10:46:38.270Z,28.51
2017-05-30T10:47:37.635Z,28.6
2017-05-30T10:48:37.949Z,28.68
2017-05-30T10:49:38.275Z,28.76
2017-05-30T10:50:37.633Z,28.88
2017-05-30T10:51:37.641Z,28.94
2017-05-30T10:52:37.973Z,28.95
2017-05-30T10:53:37.987Z,28.94
2017-05-30T10:54:37.661Z,28.95
2017-05-30T10:55:38.004Z,29.05
2017-05-30T10:56:38.338Z,29.33
2017-05-30T10:57:38.006Z,29.33
2017-05-30T10:58:38.328Z,29.42
2017-05-30T10:59:38.015Z,29.39
2017-05-30T11:00:38.025Z,29.33
2017-05-30T11:01:38.031Z,29.33
2017-05-30T11:02:38.059Z,29.3
2017-05-30T11:03:38.400Z,29.21
2017-05-30T11:04:37.779Z,29.03
2017-05-30T11:05:38.061Z,28.94
2017-05-30T11:06:38.390Z,28.86
2017-05-30T11:07:38.388Z,28.78
2017-05-30T11:08:38.076Z,28.68
2017-05-30T11:09:38.082Z,28.76
2017-05-30T11:10:38.091Z,28.73
2017-05-30T11:11:38.097Z,28.67
2017-05-30T11:12:38.102Z,28.53
2017-05-30T11:13:37.794Z,28.51
2017-05-30T11:14:38.130Z,28.45
2017-05-30T11:15:38.119Z,28.33
2017-05-30T11:16:38.446Z,28.26
2017-05-30T11:17:38.133Z,28.2
2017-05-30T11:18:38.144Z,28.14
2017-05-30T11:19:38.501Z,28.05
2017-05-30T11:20:37.851Z,27.81
2017-05-30T11:21:37.837Z,27.68
2017-05-30T11:22:38.487Z,27.71
2017-05-30T11:23:38.173Z,27.66
2017-05-30T11:24:38.179Z,27.65
2017-05-30T11:25:38.185Z,27.49
2017-05-30T11:26:38.515Z,27.45
2017-05-30T11:27:38.514Z,27.36
2017-05-30T11:28:38.216Z,27.16
2017-05-30T11:29:38.215Z,27.05
2017-05-30T11:30:38.549Z,26.94
2017-05-30T11:31:38.537Z,26.93
2017-05-30T11:32:38.225Z,26.94
2017-05-30T11:33:38.246Z,26.91
2017-05-30T11:34:38.252Z,26.86
2017-05-30T11:35:38.259Z,26.89
2017-05-30T11:36:37.927Z,26.87
2017-05-30T11:37:38.252Z,26.87
2017-05-30T11:38:37.943Z,26.84
2017-05-30T11:39:38.275Z,26.75
2017-05-30T11:40:38.288Z,26.72
2017-05-30T11:41:38.294Z,26.61
2017-05-30T11:42:38.281Z,26.52
2017-05-30T11:43:37.962Z,26.53
2017-05-30T11:44:38.285Z,26.54
2017-05-30T11:45:38.303Z,26.71
2017-05-30T11:46:37.981Z,26.71
2017-05-30T11:47:38.305Z,26.76
2017-05-30T11:48:37.990Z,27
2017-05-30T11:49:38.320Z,27
2017-05-30T11:50:38.653Z,26.94
2017-05-30T11:51:38.651Z,26.84
2017-05-30T11:52:38.334Z,26.91
2017-05-30T11:53:38.338Z,26.72
2017-05-30T11:54:38.018Z,26.87
2017-05-30T11:55:38.674Z,26.94
2017-05-30T11:56:38.353Z,27.11
2017-05-30T11:57:38.356Z,27.23
2017-05-30T11:58:38.704Z,27.3
2017-05-30T11:59:38.072Z,27.27
2017-05-30T12:00:38.059Z,27.38
2017-05-30T12:01:38.379Z,27.53
2017-05-30T12:02:38.717Z,27.52
2017-05-30T12:03:38.385Z,27.42
2017-05-30T12:04:38.069Z,27.42
2017-05-30T12:05:38.399Z,27.34
2017-05-30T12:06:38.399Z,27.23
2017-05-30T12:07:38.731Z,27.27
2017-05-30T12:08:38.412Z,27.08
2017-05-30T12:09:38.747Z,27.06
2017-05-30T12:10:38.099Z,26.99
2017-05-30T12:11:38.106Z,26.86
2017-05-30T12:12:38.464Z,26.89
2017-05-30T12:13:38.113Z,26.97
2017-05-30T12:14:38.458Z,27.12
2017-05-30T12:15:38.820Z,27.18
2017-05-30T12:16:38.465Z,27.27
2017-05-30T12:17:38.147Z,27.26
2017-05-30T12:18:38.467Z,27.21
2017-05-30T12:19:38.484Z,27.27
2017-05-30T12:20:38.151Z,27.37
2017-05-30T12:21:38.496Z,27.31
2017-05-30T12:22:38.482Z,27.34
2017-05-30T12:23:38.491Z,27.36
2017-05-30T12:24:38.189Z,27.28
2017-05-30T12:25:38.495Z,27.46
2017-05-30T12:26:38.505Z,27.59
2017-05-30T12:27:38.207Z,27.57
2017-05-30T12:28:38.515Z,27.65
2017-05-30T12:29:38.520Z,27.75
2017-05-30T12:30:38.542Z,27.79
2017-05-30T12:31:38.852Z,27.69
2017-05-30T12:32:38.532Z,27.86
2017-05-30T12:33:38.542Z,27.96
2017-05-30T12:34:38.241Z,28.01
2017-05-30T12:35:38.549Z,28.27
2017-05-30T12:36:38.579Z,28.28
2017-05-30T12:37:38.897Z,28.45
2017-05-30T12:38:38.890Z,28.54
2017-05-30T12:39:38.896Z,28.75
2017-05-30T12:40:38.785Z,28.82
2017-05-30T12:41:38.600Z,28.95
2017-05-30T12:42:38.591Z,29.08
2017-05-30T12:43:38.612Z,29.24
2017-05-30T12:44:38.615Z,29.23
2017-05-30T12:45:38.297Z,29.28
2017-05-30T12:46:38.958Z,29.13
2017-05-30T12:47:38.301Z,29.11
2017-05-30T12:48:38.983Z,29.26
2017-05-30T12:49:38.635Z,29.36
2017-05-30T12:50:38.639Z,29.45
2017-05-30T12:51:38.965Z,29.51
2017-05-30T12:52:38.655Z,29.43
2017-05-30T12:53:39.018Z,29.36
2017-05-30T12:54:38.345Z,29.29
2017-05-30T12:55:38.681Z,29.33